Time;durP1;ratioP1;P1;durP2;ratioP2;P2;SDS_P1;SDS_P2;PMS_P1;PMS_P2;Temp;Humidity;BMP_temperature;BMP_pressure;BME280_temperature;BME280_humidity;BME280_pressure;Samples;Min_cycle;Max_cycle;Signal;HPM_P1;HPM_P2
2021/06/10 00:02:11;;;;;;;12.68;6.97;;;;;;;;;;4921206;29;20107;-81
2021/06/10 00:04:37;;;;;;;9.77;7.10;;;;;;;;;;4909026;29;20033;-82
2021/06/10 00:07:04;;;;;;;9.98;7.03;;;;;;;;;;4917042;29;20025;-82
2021/06/10 00:09:30;;;;;;;12.05;6.95;;;;;;;;;;4922971;29;20494;-80
2021/06/10 00:11:56;;;;;;;8.50;7.20;;;;;;;;;;4913520;29;20031;-75
2021/06/10 00:14:22;;;;;;;8.70;7.30;;;;;;;;;;4899835;29;20107;-76
2021/06/10 00:16:48;;;;;;;8.48;6.95;;;;;;;;;;4911692;29;20483;-81
2021/06/10 00:19:14;;;;;;;9.55;6.90;;;;;;;;;;4914990;29;20050;-80
2021/06/10 00:21:41;;;;;;;10.48;7.05;;;;;;;;;;4910571;29;20024;-76
2021/06/10 00:24:07;;;;;;;8.50;6.70;;;;;;;;;;4905632;29;20120;-77
2021/06/10 00:26:34;;;;;;;10.85;6.72;;;;;;;;;;4916020;29;20028;-75
2021/06/10 00:29:00;;;;;;;11.50;7.30;;;;;;;;;;4917354;29;20490;-78
2021/06/10 00:31:26;;;;;;;11.20;6.75;;;;;;;;;;4910365;29;20096;-76
2021/06/10 00:33:52;;;;;;;7.80;6.85;;;;;;;;;;4903199;29;20127;-74
2021/06/10 00:36:18;;;;;;;12.13;7.13;;;;;;;;;;4911113;29;20060;-82
2021/06/10 00:38:46;;;;;;;10.25;6.82;;;;;;;;;;4909115;29;20391;-83
2021/06/10 00:41:12;;;;;;;14.40;7.50;;;;;;;;;;4912093;29;20108;-73
2021/06/10 00:43:38;;;;;;;8.23;6.88;;;;;;;;;;4924784;29;20138;-80
2021/06/10 00:46:04;;;;;;;9.77;6.97;;;;;;;;;;4890676;29;20036;-78
2021/06/10 00:48:31;;;;;;;9.02;6.72;;;;;;;;;;4904659;29;20083;-76
2021/06/10 00:50:57;;;;;;;9.95;6.78;;;;;;;;;;4894329;29;20035;-78
2021/06/10 00:53:25;;;;;;;10.30;6.75;;;;;;;;;;4899342;29;20528;-79
2021/06/10 00:55:54;;;;;;;8.98;6.50;;;;;;;;;;4916967;29;20031;-82
2021/06/10 00:58:21;;;;;;;10.57;6.90;;;;;;;;;;4913046;29;20430;-80
2021/06/10 01:00:47;;;;;;;8.35;6.65;;;;;;;;;;4916334;29;20112;-83
2021/06/10 01:03:13;;;;;;;9.68;6.68;;;;;;;;;;4903972;29;20152;-83
2021/06/10 01:05:43;;;;;;;9.50;7.07;;;;;;;;;;4888824;29;20051;-82
2021/06/10 01:08:15;;;;;;;7.50;6.70;;;;;;;;;;4921174;29;20059;-82
2021/06/10 01:10:56;;;;;;;12.20;6.90;;;;;;;;;;4911113;29;20437;-82
2021/06/10 01:13:22;;;;;;;10.35;7.20;;;;;;;;;;4918456;29;20039;-83
2021/06/10 01:15:51;;;;;;;11.40;6.80;;;;;;;;;;4905653;29;20575;-80
2021/06/10 01:18:18;;;;;;;9.00;6.55;;;;;;;;;;4905786;29;20040;-83
2021/06/10 01:20:44;;;;;;;10.35;6.80;;;;;;;;;;4912221;29;20036;-85
2021/06/10 01:23:31;;;;;;;9.48;6.95;;;;;;;;;;4918313;29;20471;-81
2021/06/10 01:26:20;;;;;;;11.98;7.10;;;;;;;;;;4875535;29;20037;-82
2021/06/10 01:28:47;;;;;;;8.65;7.00;;;;;;;;;;4878268;29;20039;-83
2021/06/10 01:31:15;;;;;;;15.77;7.55;;;;;;;;;;4878323;29;20130;-83
2021/06/10 01:33:43;;;;;;;8.65;6.97;;;;;;;;;;4886388;29;20044;-85
2021/06/10 01:36:12;;;;;;;12.50;7.18;;;;;;;;;;4870437;29;20081;-84
2021/06/10 01:38:39;;;;;;;11.00;7.28;;;;;;;;;;4878248;29;20032;-84
2021/06/10 01:41:05;;;;;;;12.40;7.07;;;;;;;;;;4868022;29;20420;-83
2021/06/10 01:43:33;;;;;;;10.25;7.10;;;;;;;;;;4879862;29;20044;-84
2021/06/10 01:46:00;;;;;;;11.32;7.20;;;;;;;;;;4875277;29;20103;-83
2021/06/10 01:48:29;;;;;;;8.48;7.15;;;;;;;;;;4875095;29;20043;-83
2021/06/10 01:50:58;;;;;;;8.32;7.00;;;;;;;;;;4878709;29;20040;-83
2021/06/10 01:53:25;;;;;;;9.88;7.38;;;;;;;;;;4870270;29;20195;-83
2021/06/10 01:55:53;;;;;;;9.65;7.40;;;;;;;;;;4876903;29;20089;-84
2021/06/10 01:58:20;;;;;;;12.88;7.47;;;;;;;;;;4884048;29;20044;-82
2021/06/10 02:00:47;;;;;;;8.18;7.20;;;;;;;;;;4881091;29;20025;-83
2021/06/10 02:03:14;;;;;;;10.02;7.15;;;;;;;;;;4888359;29;20072;-84
2021/06/10 02:05:40;;;;;;;7.75;6.93;;;;;;;;;;4917157;29;20115;-79
2021/06/10 02:08:08;;;;;;;11.18;7.10;;;;;;;;;;4926420;29;20027;-80
2021/06/10 02:10:34;;;;;;;8.43;7.38;;;;;;;;;;4923193;29;20024;-82
2021/06/10 02:13:00;;;;;;;11.38;7.72;;;;;;;;;;4912156;29;20050;-84
2021/06/10 02:15:26;;;;;;;8.43;7.47;;;;;;;;;;4902249;29;20551;-82
2021/06/10 02:17:52;;;;;;;10.05;7.70;;;;;;;;;;4917859;29;20067;-80
2021/06/10 02:20:20;;;;;;;10.73;7.28;;;;;;;;;;4897745;29;20020;-83
2021/06/10 02:22:46;;;;;;;9.00;7.55;;;;;;;;;;4907241;29;20364;-80
2021/06/10 02:25:12;;;;;;;12.23;7.32;;;;;;;;;;4915641;29;20479;-82
2021/06/10 02:27:39;;;;;;;10.40;7.30;;;;;;;;;;4906810;29;20045;-83
2021/06/10 02:30:08;;;;;;;9.00;6.93;;;;;;;;;;4899698;29;20036;-83
2021/06/10 02:32:34;;;;;;;10.70;7.10;;;;;;;;;;4914396;29;20052;-83
2021/06/10 02:35:05;;;;;;;11.10;7.22;;;;;;;;;;4916554;29;20473;-81
2021/06/10 02:37:31;;;;;;;8.77;7.50;;;;;;;;;;4913142;29;20015;-83
2021/06/10 02:39:58;;;;;;;10.98;7.30;;;;;;;;;;4906256;29;20392;-80
2021/06/10 02:42:24;;;;;;;9.48;7.32;;;;;;;;;;4896085;29;20036;-84
2021/06/10 02:44:52;;;;;;;10.88;7.28;;;;;;;;;;4915450;29;20060;-82
2021/06/10 02:47:20;;;;;;;10.52;7.18;;;;;;;;;;4906552;29;20036;-83
2021/06/10 02:49:47;;;;;;;11.35;7.80;;;;;;;;;;4912728;29;20028;-83
2021/06/10 02:52:16;;;;;;;11.15;7.70;;;;;;;;;;4913407;29;20391;-84
2021/06/10 02:54:44;;;;;;;11.60;8.00;;;;;;;;;;4917245;29;20024;-84
2021/06/10 02:57:10;;;;;;;8.45;7.60;;;;;;;;;;4908943;29;20257;-81
2021/06/10 02:59:37;;;;;;;12.90;7.47;;;;;;;;;;4920440;29;20115;-82
2021/06/10 03:02:03;;;;;;;9.85;7.63;;;;;;;;;;4905670;29;20035;-80
2021/06/10 03:04:30;;;;;;;12.93;8.35;;;;;;;;;;4899299;29;20391;-80
2021/06/10 03:06:57;;;;;;;10.95;7.53;;;;;;;;;;4913660;29;20040;-82
2021/06/10 03:09:23;;;;;;;11.32;7.60;;;;;;;;;;4917040;29;20028;-78
2021/06/10 03:11:50;;;;;;;8.85;7.95;;;;;;;;;;4907451;29;20028;-79
2021/06/10 03:14:16;;;;;;;11.75;7.80;;;;;;;;;;4909585;29;20040;-83
2021/06/10 03:16:45;;;;;;;10.18;7.80;;;;;;;;;;4902973;29;20052;-82
2021/06/10 03:19:11;;;;;;;9.90;7.90;;;;;;;;;;4902066;29;20585;-82
2021/06/10 03:21:37;;;;;;;12.18;8.50;;;;;;;;;;4890546;29;20423;-80
2021/06/10 03:24:04;;;;;;;10.55;8.48;;;;;;;;;;4914254;29;20116;-79
2021/06/10 03:26:33;;;;;;;13.50;8.30;;;;;;;;;;4913015;29;20036;-81
2021/06/10 03:28:59;;;;;;;11.43;8.15;;;;;;;;;;4901442;29;20024;-83
2021/06/10 03:31:25;;;;;;;12.98;8.35;;;;;;;;;;4914257;29;20093;-80
2021/06/10 03:33:52;;;;;;;10.77;7.90;;;;;;;;;;4906334;29;20055;-80
2021/06/10 03:36:19;;;;;;;11.02;7.82;;;;;;;;;;4910359;29;20078;-83
2021/06/10 03:38:46;;;;;;;13.43;8.50;;;;;;;;;;4912865;29;20502;-81
2021/06/10 03:41:12;;;;;;;12.00;8.30;;;;;;;;;;4907118;29;20033;-79
2021/06/10 03:43:39;;;;;;;11.35;8.52;;;;;;;;;;4922849;29;20100;-83
2021/06/10 03:46:08;;;;;;;11.43;8.60;;;;;;;;;;4897515;29;20040;-83
2021/06/10 03:48:35;;;;;;;12.35;8.88;;;;;;;;;;4913114;29;20028;-75
2021/06/10 03:51:01;;;;;;;11.95;8.27;;;;;;;;;;4916046;29;20031;-80
2021/06/10 03:53:27;;;;;;;13.48;8.07;;;;;;;;;;4914955;29;20071;-80
2021/06/10 03:55:53;;;;;;;11.38;7.43;;;;;;;;;;4917518;29;20016;-81
2021/06/10 03:58:21;;;;;;;12.10;7.80;;;;;;;;;;4909258;29;20040;-82
2021/06/10 04:00:48;;;;;;;18.13;8.35;;;;;;;;;;4923447;29;20101;-79
2021/06/10 04:03:14;;;;;;;10.82;8.48;;;;;;;;;;4901800;29;20483;-81
2021/06/10 04:05:40;;;;;;;25.65;9.27;;;;;;;;;;4913606;29;20032;-82
2021/06/10 04:08:06;;;;;;;18.02;8.45;;;;;;;;;;4923815;29;20023;-80
2021/06/10 04:10:32;;;;;;;12.95;8.07;;;;;;;;;;4923197;29;20076;-83
2021/06/10 04:12:59;;;;;;;11.73;8.68;;;;;;;;;;4898696;29;20040;-81
2021/06/10 04:15:25;;;;;;;12.23;8.43;;;;;;;;;;4918327;29;20029;-77
2021/06/10 04:17:51;;;;;;;11.35;8.10;;;;;;;;;;4919878;29;20048;-83
2021/06/10 04:20:17;;;;;;;12.50;8.23;;;;;;;;;;4923241;29;20034;-79
2021/06/10 04:22:43;;;;;;;10.88;8.00;;;;;;;;;;4912436;29;20031;-83
2021/06/10 04:25:14;;;;;;;12.98;8.02;;;;;;;;;;4917790;29;20386;-80
2021/06/10 04:27:40;;;;;;;11.80;8.45;;;;;;;;;;4913326;29;20029;-81
2021/06/10 04:30:11;;;;;;;13.32;8.75;;;;;;;;;;4913968;29;20040;-78
2021/06/10 04:32:37;;;;;;;16.92;9.13;;;;;;;;;;4925703;29;20486;-83
2021/06/10 04:35:09;;;;;;;18.77;8.85;;;;;;;;;;4911640;29;20036;-82
2021/06/10 04:37:35;;;;;;;15.68;8.45;;;;;;;;;;4898948;29;20047;-75
2021/06/10 04:40:01;;;;;;;18.63;8.77;;;;;;;;;;4913410;29;20084;-78
2021/06/10 04:42:27;;;;;;;25.00;9.43;;;;;;;;;;4912705;29;20032;-79
2021/06/10 04:44:53;;;;;;;17.42;8.40;;;;;;;;;;4906143;29;20059;-75
2021/06/10 04:47:19;;;;;;;11.35;7.93;;;;;;;;;;4914127;29;20024;-74
2021/06/10 04:49:45;;;;;;;12.35;7.25;;;;;;;;;;4912448;29;20505;-75
2021/06/10 04:52:11;;;;;;;10.43;7.75;;;;;;;;;;4918932;29;20028;-77
2021/06/10 04:54:37;;;;;;;15.43;7.47;;;;;;;;;;4916947;29;20042;-76
2021/06/10 04:57:04;;;;;;;14.65;8.75;;;;;;;;;;4912181;29;20048;-78
2021/06/10 04:59:33;;;;;;;13.32;8.85;;;;;;;;;;4920509;29;20035;-76
2021/06/10 05:02:04;;;;;;;9.85;7.80;;;;;;;;;;4901382;29;20509;-77
2021/06/10 05:04:31;;;;;;;11.60;8.52;;;;;;;;;;4914532;29;20032;-75
2021/06/10 05:06:57;;;;;;;15.20;8.50;;;;;;;;;;4916028;29;20457;-82
2021/06/10 05:09:23;;;;;;;22.02;9.10;;;;;;;;;;4914271;29;20068;-79
2021/06/10 05:11:49;;;;;;;13.15;9.50;;;;;;;;;;4898456;29;20095;-79
2021/06/10 05:14:16;;;;;;;14.45;8.77;;;;;;;;;;4917759;29;20036;-77
2021/06/10 05:16:44;;;;;;;12.35;8.77;;;;;;;;;;4916259;29;20061;-76
2021/06/10 05:19:20;;;;;;;19.30;8.95;;;;;;;;;;4917740;29;20035;-86
2021/06/10 05:21:46;;;;;;;16.48;9.18;;;;;;;;;;4897040;29;20024;-76
2021/06/10 05:24:14;;;;;;;11.73;8.80;;;;;;;;;;4911392;29;20169;-76
2021/06/10 05:26:41;;;;;;;12.63;8.73;;;;;;;;;;4910633;29;20510;-81
2021/06/10 05:29:07;;;;;;;13.20;9.07;;;;;;;;;;4915136;29;20111;-75
2021/06/10 05:31:33;;;;;;;17.55;9.40;;;;;;;;;;4913751;29;20032;-75
2021/06/10 05:34:00;;;;;;;14.43;9.05;;;;;;;;;;4915436;29;20046;-77
2021/06/10 05:36:26;;;;;;;14.25;9.35;;;;;;;;;;4891470;29;20036;-74
2021/06/10 05:38:52;;;;;;;17.40;10.50;;;;;;;;;;4915976;29;20035;-74
2021/06/10 05:41:18;;;;;;;14.60;9.48;;;;;;;;;;4912857;29;20032;-74
2021/06/10 05:43:44;;;;;;;13.98;9.80;;;;;;;;;;4918045;29;20028;-75
2021/06/10 05:46:10;;;;;;;17.23;10.40;;;;;;;;;;4908760;29;20032;-74
2021/06/10 05:48:36;;;;;;;16.08;11.27;;;;;;;;;;4911095;29;20025;-75
2021/06/10 05:51:05;;;;;;;21.55;11.00;;;;;;;;;;4911934;29;20032;-81
2021/06/10 05:53:31;;;;;;;14.20;10.55;;;;;;;;;;4919109;29;20029;-76
2021/06/10 05:55:57;;;;;;;17.23;11.32;;;;;;;;;;4910199;29;20036;-76
2021/06/10 05:58:26;;;;;;;16.00;11.10;;;;;;;;;;4906727;29;20402;-75
2021/06/10 06:00:52;;;;;;;18.13;10.48;;;;;;;;;;4901414;29;20046;-74
2021/06/10 06:03:21;;;;;;;12.63;10.18;;;;;;;;;;4921073;29;20028;-74
2021/06/10 06:05:48;;;;;;;19.65;10.38;;;;;;;;;;4924012;29;20047;-77
2021/06/10 06:08:16;;;;;;;13.35;10.30;;;;;;;;;;4919315;29;20024;-76
2021/06/10 06:10:42;;;;;;;14.80;9.95;;;;;;;;;;4898674;29;20124;-74
2021/06/10 06:13:10;;;;;;;25.58;11.65;;;;;;;;;;4907722;29;20031;-75
2021/06/10 06:15:36;;;;;;;22.58;11.77;;;;;;;;;;4911371;29;20051;-76
2021/06/10 06:18:02;;;;;;;17.52;11.32;;;;;;;;;;4910530;29;20043;-76
2021/06/10 06:20:28;;;;;;;18.20;11.30;;;;;;;;;;4899768;29;20036;-76
2021/06/10 06:22:54;;;;;;;17.85;10.60;;;;;;;;;;4907595;29;20493;-76
2021/06/10 06:25:21;;;;;;;21.38;11.35;;;;;;;;;;4914333;29;20438;-75
2021/06/10 06:27:47;;;;;;;23.83;11.73;;;;;;;;;;4907604;29;20072;-75
2021/06/10 06:30:15;;;;;;;14.40;10.93;;;;;;;;;;4906753;29;20079;-76
2021/06/10 06:32:41;;;;;;;14.93;10.60;;;;;;;;;;4916036;29;20483;-75
2021/06/10 06:35:08;;;;;;;14.88;9.85;;;;;;;;;;4914226;29;20040;-75
2021/06/10 06:37:35;;;;;;;15.55;9.98;;;;;;;;;;4913144;29;20436;-75
2021/06/10 06:40:01;;;;;;;14.95;10.27;;;;;;;;;;4909036;29;20032;-77
2021/06/10 06:42:27;;;;;;;25.48;11.63;;;;;;;;;;4913048;29;20084;-75
2021/06/10 06:44:53;;;;;;;15.45;11.35;;;;;;;;;;4913307;29;20031;-76
2021/06/10 06:47:19;;;;;;;18.30;11.27;;;;;;;;;;4912709;29;20371;-72
2021/06/10 06:49:45;;;;;;;15.20;10.85;;;;;;;;;;4897169;29;20140;-75
2021/06/10 06:52:11;;;;;;;18.63;10.60;;;;;;;;;;4906721;29;20033;-81
2021/06/10 06:54:38;;;;;;;17.17;11.07;;;;;;;;;;4909099;29;20056;-77
2021/06/10 07:45:45;;;;;;;11.07;6.80;;;;;;;;;;4879603;29;20041;-86
2021/06/10 07:48:12;;;;;;;8.05;6.55;;;;;;;;;;4881186;29;20069;-89
2021/06/10 07:50:38;;;;;;;11.82;6.78;;;;;;;;;;4885167;29;20031;-89
2021/06/10 07:53:06;;;;;;;12.82;6.85;;;;;;;;;;4882859;29;20048;-86
2021/06/10 07:55:32;;;;;;;12.70;7.00;;;;;;;;;;4886192;29;20101;-90
2021/06/10 07:58:01;;;;;;;12.00;6.72;;;;;;;;;;4889988;29;20033;-88
2021/06/10 08:00:28;;;;;;;11.68;6.40;;;;;;;;;;4882607;29;20041;-89
2021/06/10 08:02:58;;;;;;;9.40;5.65;;;;;;;;;;4888531;29;20543;-85
2021/06/10 08:05:24;;;;;;;8.88;5.82;;;;;;;;;;4886597;29;20097;-88
2021/06/10 08:07:52;;;;;;;8.85;6.00;;;;;;;;;;4885269;29;20373;-91
2021/06/10 08:10:18;;;;;;;8.70;5.50;;;;;;;;;;4879310;29;20567;-79
2021/06/10 08:12:44;;;;;;;7.05;5.50;;;;;;;;;;4885334;29;20093;-81
2021/06/10 08:15:10;;;;;;;11.23;5.63;;;;;;;;;;4888442;29;20355;-75
2021/06/10 08:17:36;;;;;;;11.50;5.80;;;;;;;;;;4892699;29;20033;-89
2021/06/10 08:20:07;;;;;;;9.80;5.18;;;;;;;;;;4883214;29;20037;-89
2021/06/10 08:22:33;;;;;;;14.25;5.35;;;;;;;;;;4881902;29;20087;-84
2021/06/10 08:25:07;;;;;;;11.43;5.53;;;;;;;;;;4895580;29;20088;-85
2021/06/10 08:27:33;;;;;;;8.82;5.28;;;;;;;;;;4884251;29;20021;-78
2021/06/10 08:29:59;;;;;;;11.23;5.55;;;;;;;;;;4886195;29;20025;-79
2021/06/10 08:32:27;;;;;;;11.73;5.60;;;;;;;;;;4880128;29;20064;-83
2021/06/10 08:34:53;;;;;;;10.13;5.38;;;;;;;;;;4887404;29;20402;-85
2021/06/10 08:37:20;;;;;;;11.13;5.18;;;;;;;;;;4886528;29;20022;-83
2021/06/10 08:39:46;;;;;;;11.35;4.82;;;;;;;;;;4884619;29;20060;-83
2021/06/10 08:42:12;;;;;;;11.73;5.10;;;;;;;;;;4880255;29;20040;-81
2021/06/10 08:44:38;;;;;;;7.72;4.95;;;;;;;;;;4893380;29;20464;-78
2021/06/10 08:47:07;;;;;;;12.00;5.30;;;;;;;;;;4901841;29;20036;-79
2021/06/10 08:49:33;;;;;;;12.00;5.35;;;;;;;;;;4902119;29;20024;-77
2021/06/10 08:52:05;;;;;;;10.00;5.38;;;;;;;;;;4896921;29;20090;-76
2021/06/10 08:54:31;;;;;;;9.27;4.70;;;;;;;;;;4898919;29;20063;-76
2021/06/10 08:57:00;;;;;;;10.90;5.20;;;;;;;;;;4896799;29;20021;-82
2021/06/10 08:59:26;;;;;;;16.20;4.90;;;;;;;;;;4901041;29;20037;-73
2021/06/10 09:01:52;;;;;;;9.90;5.15;;;;;;;;;;4897613;29;20025;-76
2021/06/10 09:04:18;;;;;;;7.55;5.10;;;;;;;;;;4901656;29;20085;-76
2021/06/10 09:06:46;;;;;;;7.97;4.78;;;;;;;;;;4900277;29;20027;-75
2021/06/10 09:09:12;;;;;;;6.10;4.25;;;;;;;;;;4896090;29;20029;-81
2021/06/10 09:11:39;;;;;;;9.88;4.95;;;;;;;;;;4883580;29;20040;-82
2021/06/10 09:14:08;;;;;;;9.00;4.65;;;;;;;;;;4897448;29;20052;-92
2021/06/10 09:16:36;;;;;;;8.90;4.57;;;;;;;;;;4896015;29;20028;-81
2021/06/10 09:19:11;;;;;;;10.35;4.60;;;;;;;;;;4895012;29;20036;-79
2021/06/10 09:21:39;;;;;;;10.85;5.00;;;;;;;;;;4915787;29;20027;-81
2021/06/10 09:24:19;;;;;;;7.82;4.43;;;;;;;;;;4915870;29;20039;-81
2021/06/10 09:27:02;;;;;;;11.40;4.70;;;;;;;;;;4917456;29;20031;-74
2021/06/10 09:29:39;;;;;;;10.30;5.03;;;;;;;;;;4920389;29;20082;-76
2021/06/10 09:32:12;;;;;;;8.23;4.60;;;;;;;;;;4924274;29;20034;-75
2021/06/10 09:35:06;;;;;;;9.07;4.90;;;;;;;;;;4917481;29;20394;-75
2021/06/10 09:37:34;;;;;;;8.45;5.00;;;;;;;;;;4916211;29;20064;-83
2021/06/10 09:40:01;;;;;;;9.73;4.55;;;;;;;;;;4915548;29;20509;-86
2021/06/10 10:54:30;;;;;;;9.93;3.70;;;;;;;;;;5152206;23;21313;-66
2021/06/10 10:56:56;;;;;;;6.95;3.85;;;;;;;;;;4892347;29;20127;-69
2021/06/10 10:59:23;;;;;;;65.22;7.82;;;;;;;;;;4890671;29;20025;-71
2021/06/10 11:02:05;;;;;;;8.38;4.53;;;;;;;;;;4897164;29;20103;-76
2021/06/10 11:04:49;;;;;;;10.02;4.60;;;;;;;;;;4889545;29;20037;-65
2021/06/10 11:07:34;;;;;;;26.08;5.30;;;;;;;;;;4892500;29;20028;-69
2021/06/10 11:10:11;;;;;;;18.00;5.60;;;;;;;;;;4895393;29;20032;-64
2021/06/10 11:12:43;;;;;;;7.43;4.65;;;;;;;;;;4899834;29;20034;-70
2021/06/10 11:18:12;;;;;;;10.43;5.28;;;;;;;;;;4963811;23;20044;-77
2021/06/10 11:20:39;;;;;;;15.60;5.07;;;;;;;;;;4918630;29;20549;-78
2021/06/10 11:23:15;;;;;;;23.02;5.53;;;;;;;;;;4918011;29;20052;-75
2021/06/10 11:25:44;;;;;;;5.72;4.43;;;;;;;;;;4918196;29;20467;-77
2021/06/10 11:28:11;;;;;;;12.50;5.10;;;;;;;;;;4913034;29;20024;-79
2021/06/10 11:30:39;;;;;;;7.57;4.32;;;;;;;;;;4915528;29;20036;-76
2021/06/10 11:33:07;;;;;;;10.23;5.03;;;;;;;;;;4901352;29;20516;-80
2021/06/10 11:35:45;;;;;;;12.48;4.53;;;;;;;;;;4909092;29;20036;-74
2021/06/10 11:38:24;;;;;;;8.57;4.32;;;;;;;;;;4916180;29;20033;-80
2021/06/10 11:40:59;;;;;;;9.48;4.47;;;;;;;;;;4917808;29;20430;-74
2021/06/10 11:43:26;;;;;;;8.43;4.40;;;;;;;;;;4916309;29;20016;-72
2021/06/10 11:45:57;;;;;;;7.72;4.28;;;;;;;;;;4927278;29;20104;-72
2021/06/10 11:48:34;;;;;;;9.10;4.50;;;;;;;;;;4917965;29;20036;-72
2021/06/10 11:51:02;;;;;;;14.73;5.53;;;;;;;;;;4918678;29;20555;-82
2021/06/10 11:53:35;;;;;;;10.75;4.97;;;;;;;;;;4922233;29;20032;-71
2021/06/10 11:56:01;;;;;;;;;;;;;;;;;;4915573;29;20083;-70
2021/06/10 11:58:29;;;;;;;8.32;4.40;;;;;;;;;;4916046;29;19926;-77
2021/06/10 12:00:55;;;;;;;10.15;4.35;;;;;;;;;;4915088;29;20059;-72
2021/06/10 12:03:21;;;;;;;7.28;4.15;;;;;;;;;;4917715;29;20024;-77
2021/06/10 12:05:55;;;;;;;14.05;5.20;;;;;;;;;;4913104;29;20027;-84
2021/06/10 12:08:21;;;;;;;8.43;4.97;;;;;;;;;;4914988;29;20495;-74
2021/06/10 12:10:53;;;;;;;13.95;5.47;;;;;;;;;;4913245;29;20036;-80
2021/06/10 12:13:26;;;;;;;9.48;4.90;;;;;;;;;;4919989;29;20039;-80
2021/06/10 12:15:52;;;;;;;9.77;5.55;;;;;;;;;;4896683;29;20096;-76
2021/06/10 12:18:20;;;;;;;9.88;6.45;;;;;;;;;;4908022;29;20052;-79
2021/06/10 12:20:46;;;;;;;7.72;5.45;;;;;;;;;;4905812;29;21702;-77
2021/06/10 12:23:19;;;;;;;9.82;5.80;;;;;;;;;;4904710;29;20032;-81
2021/06/10 12:25:51;;;;;;;15.15;6.78;;;;;;;;;;4914807;29;20474;-63
2021/06/10 12:28:30;;;;;;;15.00;6.35;;;;;;;;;;4903196;29;20037;-67
2021/06/10 12:31:02;;;;;;;14.05;6.57;;;;;;;;;;4908079;29;20071;-69
2021/06/10 12:33:28;;;;;;;11.00;6.78;;;;;;;;;;4904330;29;20036;-78
2021/06/10 12:35:56;;;;;;;9.93;6.60;;;;;;;;;;4907078;29;20028;-70
2021/06/10 12:38:30;;;;;;;9.18;6.85;;;;;;;;;;4905488;29;20073;-74
2021/06/10 12:41:09;;;;;;;7.90;6.57;;;;;;;;;;4903663;29;20029;-78
2021/06/10 12:43:36;;;;;;;12.68;6.80;;;;;;;;;;4909362;29;20213;-79
2021/06/10 12:46:03;;;;;;;9.10;6.47;;;;;;;;;;4911864;29;20020;-66
2021/06/10 12:48:31;;;;;;;8.95;6.07;;;;;;;;;;4904268;29;20251;-83
2021/06/10 12:51:15;;;;;;;8.77;5.75;;;;;;;;;;4901826;29;20100;-75
2021/06/10 12:54:00;;;;;;;14.55;5.78;;;;;;;;;;4905762;29;20028;-71
2021/06/10 12:56:38;;;;;;;8.88;5.25;;;;;;;;;;4913264;29;20032;-69
2021/06/10 12:59:05;;;;;;;8.85;4.13;;;;;;;;;;4908115;29;20036;-73
2021/06/10 13:01:31;;;;;;;7.20;4.35;;;;;;;;;;4903651;29;20387;-82
2021/06/10 13:03:57;;;;;;;7.50;4.00;;;;;;;;;;4904374;29;20028;-77
2021/06/10 13:06:25;;;;;;;10.77;4.68;;;;;;;;;;4906404;29;20254;-80
2021/06/10 13:08:51;;;;;;;10.45;4.05;;;;;;;;;;4907489;29;20079;-77
2021/06/10 13:11:18;;;;;;;10.90;3.90;;;;;;;;;;4906128;29;20397;-76
2021/06/10 13:13:44;;;;;;;13.77;4.03;;;;;;;;;;4909096;29;20035;-75
2021/06/10 13:16:16;;;;;;;6.00;3.72;;;;;;;;;;4910529;29;20052;-77
2021/06/10 13:18:46;;;;;;;10.23;4.22;;;;;;;;;;4913487;29;20115;-82
2021/06/10 13:21:18;;;;;;;8.88;4.30;;;;;;;;;;4909824;29;20028;-82
2021/06/10 13:23:48;;;;;;;9.85;4.00;;;;;;;;;;4912744;29;20100;-86
2021/06/10 13:26:16;;;;;;;7.28;4.05;;;;;;;;;;4910252;29;20387;-79
2021/06/10 13:28:43;;;;;;;8.20;4.00;;;;;;;;;;4904305;29;20087;-85
2021/06/10 13:31:12;;;;;;;6.78;3.75;;;;;;;;;;4916469;29;20550;-69
2021/06/10 13:33:38;;;;;;;5.85;4.20;;;;;;;;;;4907126;29;20071;-84
2021/06/10 13:36:11;;;;;;;6.40;3.40;;;;;;;;;;4909920;29;20490;-83
2021/06/10 13:38:38;;;;;;;10.05;4.20;;;;;;;;;;4914532;29;20059;-79
2021/06/10 13:41:07;;;;;;;5.72;3.90;;;;;;;;;;4908424;29;20032;-84
2021/06/10 13:43:37;;;;;;;9.65;4.10;;;;;;;;;;4907379;29;20020;-80
2021/06/10 13:46:04;;;;;;;5.80;4.18;;;;;;;;;;4909955;29;20048;-81
2021/06/10 13:48:30;;;;;;;8.00;3.95;;;;;;;;;;4913123;29;20054;-78
2021/06/10 13:50:57;;;;;;;11.45;4.30;;;;;;;;;;4909440;29;20024;-68
2021/06/10 13:53:23;;;;;;;7.72;4.10;;;;;;;;;;4906951;29;20035;-74
2021/06/10 13:55:51;;;;;;;33.00;6.00;;;;;;;;;;4912063;29;20028;-68
2021/06/10 13:58:17;;;;;;;14.52;5.30;;;;;;;;;;4910449;29;20622;-85
2021/06/10 14:00:44;;;;;;;16.17;4.65;;;;;;;;;;4908060;29;20060;-72
2021/06/10 14:03:10;;;;;;;16.67;5.15;;;;;;;;;;4910593;29;20091;-79
2021/06/10 14:05:36;;;;;;;48.30;6.43;;;;;;;;;;4909348;29;20028;-78
2021/06/10 14:08:02;;;;;;;14.98;4.97;;;;;;;;;;4911929;29;20471;-80
2021/06/10 14:10:29;;;;;;;15.60;5.43;;;;;;;;;;4912400;29;20024;-69
2021/06/10 14:12:55;;;;;;;11.73;4.90;;;;;;;;;;4903776;29;20103;-70
2021/06/10 14:15:22;;;;;;;11.95;5.00;;;;;;;;;;4907750;29;20037;-83
2021/06/10 14:17:48;;;;;;;9.35;4.85;;;;;;;;;;4911530;29;20507;-63
2021/06/10 14:20:15;;;;;;;11.65;5.22;;;;;;;;;;4911056;29;20032;-66
2021/06/10 14:22:41;;;;;;;8.30;4.97;;;;;;;;;;4907148;29;20487;-80
2021/06/10 14:25:07;;;;;;;7.20;5.28;;;;;;;;;;4908866;29;20136;-77
2021/06/10 14:27:33;;;;;;;12.73;5.35;;;;;;;;;;4904222;29;20380;-77
2021/06/10 14:32:46;;;;;;;9.25;5.13;;;;;;;;;;4853108;29;20044;-81
2021/06/10 14:35:14;;;;;;;9.43;5.25;;;;;;;;;;4856551;29;20057;-79
2021/06/10 14:37:41;;;;;;;10.65;4.90;;;;;;;;;;4848682;29;20057;-74
2021/06/10 14:40:08;;;;;;;16.13;4.68;;;;;;;;;;4842686;29;20038;-76
2021/06/10 14:42:34;;;;;;;17.08;4.93;;;;;;;;;;4849437;29;20033;-71
2021/06/10 14:45:00;;;;;;;7.40;4.30;;;;;;;;;;4849936;29;20042;-77
2021/06/10 14:47:26;;;;;;;7.85;4.20;;;;;;;;;;4855194;29;20056;-73
2021/06/10 14:49:52;;;;;;;5.47;3.88;;;;;;;;;;4849376;29;20109;-82
2021/06/10 14:52:19;;;;;;;7.35;4.00;;;;;;;;;;4845867;29;20050;-76
2021/06/10 14:54:45;;;;;;;10.85;4.75;;;;;;;;;;4854116;29;20120;-77
2021/06/10 14:57:12;;;;;;;10.57;4.10;;;;;;;;;;4846403;29;20049;-69
2021/06/10 14:59:38;;;;;;;9.55;4.13;;;;;;;;;;4845529;29;20045;-72
2021/06/10 15:02:04;;;;;;;9.05;3.97;;;;;;;;;;4846521;29;20144;-75
2021/06/10 15:04:31;;;;;;;9.57;3.70;;;;;;;;;;4853466;29;20045;-65
2021/06/10 15:06:57;;;;;;;10.48;3.80;;;;;;;;;;4854605;29;20112;-75
2021/06/10 15:09:23;;;;;;;17.00;4.35;;;;;;;;;;4868872;29;20045;-70
2021/06/10 15:11:49;;;;;;;10.15;4.10;;;;;;;;;;4904710;29;20103;-77
2021/06/10 15:14:15;;;;;;;24.35;5.22;;;;;;;;;;4906265;29;20075;-81
2021/06/10 15:16:44;;;;;;;15.35;4.55;;;;;;;;;;4902592;29;20044;-63
2021/06/10 15:19:11;;;;;;;12.40;4.20;;;;;;;;;;4908126;29;20044;-68
2021/06/10 15:21:37;;;;;;;25.00;5.20;;;;;;;;;;4911641;29;20486;-81
2021/06/10 15:24:03;;;;;;;13.63;4.63;;;;;;;;;;4908432;29;20028;-73
2021/06/10 15:26:29;;;;;;;6.82;3.65;;;;;;;;;;4902533;29;20029;-80
2021/06/10 15:28:55;;;;;;;8.18;4.20;;;;;;;;;;4901500;29;20449;-81
2021/06/10 15:31:21;;;;;;;10.80;4.40;;;;;;;;;;4909435;29;20132;-81
2021/06/10 15:33:48;;;;;;;6.10;4.00;;;;;;;;;;4905329;29;20036;-77
2021/06/10 15:36:14;;;;;;;14.73;4.43;;;;;;;;;;4903595;29;20040;-70
2021/06/10 15:38:40;;;;;;;7.22;4.05;;;;;;;;;;4897805;29;20042;-63
2021/06/10 15:41:07;;;;;;;9.50;4.10;;;;;;;;;;4905652;29;20048;-64
2021/06/10 15:43:33;;;;;;;4.85;3.80;;;;;;;;;;4903361;29;20052;-70
2021/06/10 15:45:59;;;;;;;6.88;3.70;;;;;;;;;;4914745;29;20032;-63
2021/06/10 15:48:25;;;;;;;4.85;3.88;;;;;;;;;;4909132;29;20020;-69
2021/06/10 15:50:51;;;;;;;5.78;3.97;;;;;;;;;;4904704;29;20083;-73
2021/06/10 15:53:17;;;;;;;7.15;4.00;;;;;;;;;;4907212;29;20071;-70
2021/06/10 15:55:44;;;;;;;18.00;4.80;;;;;;;;;;4913152;29;20044;-68
2021/06/10 15:58:10;;;;;;;9.50;4.15;;;;;;;;;;4912882;29;20054;-70
2021/06/10 16:00:37;;;;;;;10.55;4.07;;;;;;;;;;4910754;29;20060;-66
2021/06/10 16:03:05;;;;;;;11.50;4.38;;;;;;;;;;4907945;29;20154;-64
2021/06/10 16:05:32;;;;;;;5.72;3.63;;;;;;;;;;4912544;29;20067;-81
2021/06/10 16:07:59;;;;;;;10.43;3.80;;;;;;;;;;4911420;29;20479;-80
2021/06/10 16:10:28;;;;;;;7.13;4.25;;;;;;;;;;4909061;29;20028;-81
2021/06/10 16:12:55;;;;;;;11.68;4.80;;;;;;;;;;4914329;29;20031;-75
2021/06/10 16:15:21;;;;;;;9.57;4.85;;;;;;;;;;4910490;29;20063;-79
2021/06/10 16:17:48;;;;;;;10.38;4.72;;;;;;;;;;4910318;29;20072;-80
2021/06/10 16:20:15;;;;;;;10.98;4.55;;;;;;;;;;4913218;29;20072;-84
2021/06/10 16:22:41;;;;;;;9.30;4.38;;;;;;;;;;4912049;29;20495;-78
2021/06/10 16:25:08;;;;;;;6.22;4.00;;;;;;;;;;4909977;29;20035;-66
2021/06/10 16:27:34;;;;;;;10.27;4.40;;;;;;;;;;4911556;29;20410;-86
2021/06/10 16:30:00;;;;;;;18.60;5.40;;;;;;;;;;4910888;29;20028;-68
2021/06/10 16:32:29;;;;;;;15.10;6.00;;;;;;;;;;4904668;29;20031;-71
2021/06/10 16:34:55;;;;;;;14.15;6.28;;;;;;;;;;4906995;29;20143;-74
2021/06/10 16:37:21;;;;;;;12.27;5.90;;;;;;;;;;4909358;29;20080;-68
2021/06/10 16:39:47;;;;;;;9.55;5.60;;;;;;;;;;4905725;29;20056;-82
2021/06/10 16:42:13;;;;;;;8.60;5.85;;;;;;;;;;4911270;29;20581;-69
2021/06/10 16:44:39;;;;;;;10.85;5.70;;;;;;;;;;4907436;29;20024;-75